createdAt,value
2022-09-12T00:01:07.861Z,10.46
2022-09-12T00:06:09.475Z,10.38
2022-09-12T00:11:11.029Z,10.31
2022-09-12T00:16:12.795Z,10.25
2022-09-12T00:21:14.113Z,10.17
2022-09-12T00:26:15.710Z,10.12
2022-09-12T00:31:17.924Z,10.05
2022-09-12T00:36:19.528Z,10.01
2022-09-12T00:41:21.516Z,9.96
2022-09-12T00:46:23.028Z,9.92
2022-09-12T00:51:25.061Z,9.85
2022-09-12T00:56:27.074Z,9.82
2022-09-12T01:01:32.308Z,9.78
2022-09-12T01:06:30.469Z,9.75
2022-09-12T01:11:31.949Z,9.72
2022-09-12T01:16:33.665Z,9.68
2022-09-12T01:21:35.732Z,9.64
2022-09-12T01:26:37.506Z,9.6
2022-09-12T01:31:39.062Z,9.55
2022-09-12T01:36:40.705Z,9.53
2022-09-12T01:41:42.069Z,9.5
2022-09-12T01:46:44.173Z,9.47
2022-09-12T01:51:46.325Z,9.43
2022-09-12T01:56:47.667Z,9.39
2022-09-12T02:01:49.169Z,9.34
2022-09-12T02:06:50.666Z,9.27
2022-09-12T02:11:52.717Z,9.22
2022-09-12T02:16:54.152Z,9.18
2022-09-12T02:21:55.653Z,9.14
2022-09-12T02:26:57.299Z,9.1
2022-09-12T02:31:59.256Z,9.03
2022-09-12T02:37:00.661Z,8.99
2022-09-12T02:42:02.663Z,8.95
2022-09-12T02:47:04.535Z,8.89
2022-09-12T02:52:05.679Z,8.85
2022-09-12T02:57:06.946Z,8.8
2022-09-12T03:02:08.736Z,8.76
2022-09-12T03:07:10.777Z,8.7
2022-09-12T03:12:12.811Z,8.64
2022-09-12T03:17:14.275Z,8.59
2022-09-12T03:22:16.385Z,8.56
2022-09-12T03:27:27.616Z,8.52
2022-09-12T03:32:18.886Z,8.47
2022-09-12T03:37:20.466Z,8.43
2022-09-12T03:42:22.214Z,8.38
2022-09-12T03:47:23.961Z,8.34
2022-09-12T03:52:25.261Z,8.29
2022-09-12T03:57:26.611Z,8.26
2022-09-12T04:02:28.377Z,8.18
2022-09-12T04:07:30.309Z,8.14
2022-09-12T04:12:31.797Z,8.1
2022-09-12T04:17:33.031Z,8.09
2022-09-12T04:22:34.920Z,8.04
2022-09-12T04:27:36.950Z,8.01
2022-09-12T05:22:56.516Z,7.79
2022-09-12T05:27:58.205Z,7.82
2022-09-12T05:32:59.686Z,7.84
2022-09-12T05:43:02.924Z,7.92
2022-09-12T05:48:05.034Z,7.98
2022-09-12T05:53:06.419Z,8.04
2022-09-12T05:58:08.631Z,8.13
2022-09-12T06:03:10.055Z,8.22
2022-09-12T06:08:11.206Z,8.35
2022-09-12T06:13:13.177Z,8.49
2022-09-12T06:18:14.977Z,8.62
2022-09-12T06:23:16.432Z,8.83
2022-09-12T06:28:17.631Z,9.04
2022-09-12T06:33:19.154Z,9.43
2022-09-12T06:38:20.924Z,9.56
2022-09-12T06:43:22.349Z,9.78
2022-09-12T06:48:24.237Z,10.06
2022-09-12T06:53:26.400Z,10.2
2022-09-12T06:58:28.392Z,10.42
2022-09-12T07:03:29.748Z,10.69
2022-09-12T07:08:31.893Z,10.9
2022-09-12T07:13:33.358Z,11.15
2022-09-12T07:18:35.103Z,11.46
2022-09-12T07:23:36.431Z,11.86
2022-09-12T07:28:37.952Z,12.44
2022-09-12T07:33:39.313Z,12.8
2022-09-12T07:38:41.274Z,13.24
2022-09-12T07:43:42.986Z,13.7
2022-09-12T07:48:44.351Z,14.13
2022-09-12T07:53:45.663Z,14.6
2022-09-12T07:58:46.996Z,14.78
2022-09-12T08:03:48.971Z,15.11
2022-09-12T08:08:51.105Z,15.35
2022-09-12T08:13:55.525Z,15.67
2022-09-12T08:18:54.730Z,16.18
2022-09-12T08:23:56.524Z,16.69
2022-09-12T08:28:58.452Z,16.99
2022-09-12T08:34:00.370Z,17.04
2022-09-12T08:39:02.050Z,17.51
2022-09-12T08:44:03.961Z,17.44
2022-09-12T08:49:05.231Z,18.11
2022-09-12T08:54:07.361Z,18.45
2022-09-12T08:59:09.022Z,18.83
2022-09-12T09:04:10.986Z,19.1
2022-09-12T09:09:12.876Z,18.91
2022-09-12T09:14:14.292Z,18.85
2022-09-12T09:19:15.629Z,18.96
2022-09-12T09:24:17.232Z,18.96
2022-09-12T09:29:18.835Z,19.04
2022-09-12T09:34:21.115Z,19.48
2022-09-12T09:39:22.458Z,19.45
2022-09-12T09:44:24.644Z,19.75
2022-09-12T09:49:26.351Z,19.5
2022-09-12T09:54:27.614Z,19.37
2022-09-12T09:59:29.531Z,19.7
2022-09-12T10:04:30.749Z,20.07
2022-09-12T10:09:32.185Z,19.98
2022-09-12T10:14:33.686Z,19.92
2022-09-12T10:19:35.705Z,19.92
2022-09-12T10:24:37.435Z,19.7
2022-09-12T10:29:39.571Z,19.52
2022-09-12T10:34:41.525Z,19.87
2022-09-12T10:39:43.432Z,19.91
2022-09-12T10:44:44.859Z,20.01
2022-09-12T10:49:46.666Z,19.95
2022-09-12T10:54:47.689Z,20.26
2022-09-12T10:59:49.126Z,20.06
2022-09-12T11:04:50.618Z,20.12
2022-09-12T11:09:51.848Z,20.35
2022-09-12T11:14:53.849Z,20.44
2022-09-12T11:19:55.663Z,20.73
2022-09-12T11:24:57.118Z,20.24
2022-09-12T11:29:58.498Z,20.77
2022-09-12T11:34:59.709Z,20.86
2022-09-12T11:40:01.879Z,20.92
2022-09-12T11:45:03.461Z,20.87
2022-09-12T11:50:05.663Z,21
2022-09-12T11:55:06.838Z,21.1
2022-09-12T12:00:08.892Z,21.21
2022-09-12T12:05:10.953Z,21.29
2022-09-12T12:10:12.321Z,21.42
2022-09-12T12:15:14.335Z,21.47
2022-09-12T12:20:15.758Z,21
2022-09-12T12:25:21.372Z,21.07
2022-09-12T12:30:19.437Z,20.96
2022-09-12T12:35:21.129Z,20.92
2022-09-12T12:40:22.774Z,21.2
2022-09-12T12:45:24.416Z,21.21
2022-09-12T12:50:25.694Z,21.06
2022-09-12T12:55:27.239Z,21.04
2022-09-12T13:00:28.578Z,21.11
2022-09-12T13:05:30.771Z,20.98
2022-09-12T13:10:32.748Z,21.08
2022-09-12T13:15:34.745Z,21.05
2022-09-12T13:20:36.044Z,21.06
2022-09-12T13:25:37.238Z,21.04
2022-09-12T13:35:41.126Z,21.17
2022-09-12T13:40:42.781Z,21.14
2022-09-12T13:50:46.683Z,21.35
2022-09-12T13:55:48.379Z,21.39
2022-09-12T14:00:50.495Z,21.49
2022-09-12T14:05:51.951Z,21.65
2022-09-12T14:10:53.488Z,21.89
2022-09-12T14:20:56.235Z,21.91
2022-09-12T14:25:57.674Z,21.67
2022-09-12T14:30:59.091Z,21.31
2022-09-12T14:36:00.264Z,21.15
2022-09-12T14:41:01.489Z,21.2
2022-09-12T14:46:02.869Z,21.17
2022-09-12T14:51:04.028Z,20.97
2022-09-12T14:56:05.448Z,20.93
2022-09-12T15:01:06.771Z,20.87
2022-09-12T15:06:08.616Z,20.71
2022-09-12T15:11:09.896Z,20.73
2022-09-12T15:16:11.994Z,20.71
2022-09-12T15:21:13.774Z,20.71
2022-09-12T15:26:15.117Z,20.76
2022-09-12T15:31:16.652Z,20.76
2022-09-12T15:36:17.817Z,20.72
2022-09-12T15:41:19.849Z,20.64
2022-09-12T15:46:21.932Z,20.66
2022-09-12T15:51:23.899Z,20.65
2022-09-12T15:56:26.016Z,20.54
2022-09-12T16:01:27.471Z,20.54
2022-09-12T16:06:30.597Z,20.45
2022-09-12T16:06:37.345Z,20.45
2022-09-12T16:11:37.549Z,20.4
2022-09-12T16:16:39.215Z,20.33
2022-09-12T16:21:40.981Z,20.26
2022-09-12T16:26:42.259Z,20.17
2022-09-12T16:31:43.856Z,19.98
2022-09-12T16:36:45.844Z,19.87
2022-09-12T16:41:47.507Z,19.75
2022-09-12T16:46:49.059Z,19.65
2022-09-12T16:51:51.104Z,19.54
2022-09-12T16:56:52.485Z,19.39
2022-09-12T17:01:54.534Z,19.25
2022-09-12T17:06:56.345Z,19.14
2022-09-12T17:11:58.467Z,19.01
2022-09-12T17:17:00.066Z,18.92
2022-09-12T17:22:02.019Z,18.7
2022-09-12T17:27:03.338Z,18.58
2022-09-12T17:32:04.854Z,18.45
2022-09-12T17:37:06.517Z,18.32
2022-09-12T17:42:08.672Z,18.19
2022-09-12T17:47:10.823Z,18.04
2022-09-12T17:52:12.952Z,17.9
2022-09-12T17:57:14.857Z,17.76
2022-09-12T18:02:16.418Z,17.59
2022-09-12T18:07:18.367Z,17.41
2022-09-12T18:12:20.395Z,17.25
2022-09-12T18:17:21.834Z,17.04
2022-09-12T18:22:23.349Z,16.89
2022-09-12T18:27:24.647Z,16.77
2022-09-12T18:32:26.215Z,16.6
2022-09-12T18:37:27.677Z,16.45
2022-09-12T18:42:38.260Z,16.31
2022-09-12T18:47:31.017Z,16.17
2022-09-12T18:52:32.732Z,16.03
2022-09-12T18:57:34.756Z,15.88
2022-09-12T19:02:36.827Z,15.73
2022-09-12T19:07:38.294Z,15.6
2022-09-12T19:17:40.891Z,15.32
2022-09-12T19:22:42.927Z,15.19
2022-09-12T19:27:45.002Z,15.08
2022-09-12T19:32:46.899Z,14.97
2022-09-12T19:37:48.671Z,14.83
2022-09-12T19:42:50.377Z,14.71
2022-09-12T19:47:51.968Z,14.58
2022-09-12T19:52:54.067Z,14.47
2022-09-12T19:57:56.038Z,14.37
2022-09-12T20:02:57.500Z,14.24
2022-09-12T20:08:03.974Z,14.13
2022-09-12T20:13:00.550Z,14.03
2022-09-12T20:18:02.086Z,13.93
2022-09-12T20:23:04.239Z,13.83
2022-09-12T20:28:05.607Z,13.75
2022-09-12T20:33:07.429Z,13.66
2022-09-12T20:38:09.520Z,13.58
2022-09-12T20:43:11.129Z,13.48
2022-09-12T20:48:12.990Z,13.4
2022-09-12T20:53:15.030Z,13.33
2022-09-12T20:58:16.254Z,13.25
2022-09-12T21:03:17.815Z,13.17
2022-09-12T21:08:19.324Z,13.08
2022-09-12T21:13:20.577Z,13
2022-09-12T21:18:22.446Z,12.89
2022-09-12T21:23:24.421Z,12.82
2022-09-12T21:28:26.259Z,12.75
2022-09-12T21:33:28.037Z,12.68
2022-09-12T21:38:29.411Z,12.6
2022-09-12T21:43:31.108Z,12.53
2022-09-12T21:48:32.365Z,12.46
2022-09-12T21:53:33.691Z,12.37
2022-09-12T21:58:35.468Z,12.29
2022-09-12T22:13:39.942Z,12.01
2022-09-12T22:18:41.960Z,11.93
2022-09-12T22:23:43.474Z,11.89
2022-09-12T22:28:45.380Z,11.82
2022-09-12T22:33:47.297Z,11.75
2022-09-12T22:38:49.106Z,11.72
2022-09-12T22:43:50.768Z,11.64
2022-09-12T22:48:52.170Z,11.58
2022-09-12T22:53:53.361Z,11.52
2022-09-12T22:58:55.449Z,11.46
2022-09-12T23:03:57.161Z,11.38
2022-09-12T23:08:58.933Z,11.32
2022-09-12T23:14:00.541Z,11.25
2022-09-12T23:19:02.218Z,11.18
2022-09-12T23:24:04.387Z,11.12
2022-09-12T23:29:06.456Z,11.06
2022-09-12T23:34:07.968Z,11.01
2022-09-12T23:39:09.552Z,10.96
2022-09-12T23:44:10.921Z,10.92
2022-09-12T23:49:12.994Z,10.86
2022-09-12T23:54:14.719Z,10.81
2022-09-12T23:59:16.244Z,10.76
